Flight Track Log - Related Links

Times and Time Zones

All times are in EDT time to prevent confusion due to time zone crossing. See the UAE788 flight status page for this flight to view local times or setup timezone preferences in your user account.

Time Position Orientation Groundspeed Altitude Reporting Facility
EDT Latitude Longitude Course Direction KTS MPH feet Rate Location/Type
Thu 11:43:00 AM 5.2987 -3.5584 84° East  Level FlightAware Approximate
Thu 11:44:00 AM 5.3049 -3.4971 84° East  Level FlightAware Approximate
Thu 11:45:00 AM 5.3111 -3.4358 84° East  Level FlightAware Approximate
Thu 11:46:00 AM 5.3173 -3.3745 84° East  Level FlightAware Approximate
Thu 11:47:00 AM 5.3235 -3.3132 84° East  Level FlightAware Approximate
Thu 11:48:00 AM 5.3296 -3.2519 84° East  Level FlightAware Approximate
Thu 11:49:00 AM 5.3358 -3.1905 84° East  Level FlightAware Approximate
Thu 11:50:00 AM 5.3420 -3.1292 84° East  Level FlightAware Approximate
Thu 11:51:00 AM 5.3481 -3.0679 84° East  Level FlightAware Approximate
Thu 11:52:00 AM 5.3543 -3.0066 84° East  Level FlightAware Approximate
Thu 11:53:00 AM 5.3604 -2.9453 84° East  Level FlightAware Approximate
Thu 11:54:00 AM 5.3666 -2.8839 84° East  Level FlightAware Approximate
Thu 11:55:00 AM 5.3727 -2.8226 84° East  Level FlightAware Approximate
Thu 11:56:00 AM 5.3788 -2.7613 84° East  Level FlightAware Approximate
Thu 11:57:00 AM 5.3850 -2.6999 84° East  Level FlightAware Approximate
Thu 11:58:00 AM 5.3911 -2.6386 84° East  Level FlightAware Approximate
Thu 11:59:00 AM 5.3972 -2.5773 84° East  Level FlightAware Approximate
Thu 12:00:00 PM 5.4033 -2.5159 84° East  Level FlightAware Approximate
Thu 12:01:00 PM 5.4094 -2.4546 84° East  Level FlightAware Approximate
Thu 12:02:00 PM 5.4155 -2.3933 84° East  Level FlightAware Approximate
Thu 12:03:00 PM 5.4215 -2.3319 84° East  Level FlightAware Approximate
Thu 12:04:00 PM 5.4276 -2.2706 84° East  Level FlightAware Approximate
Thu 12:05:00 PM 5.4337 -2.2093 84° East  Level FlightAware Approximate
Thu 12:06:00 PM 5.4398 -2.1479 84° East  Level FlightAware Approximate
Thu 12:07:00 PM 5.4458 -2.0866 84° East  Level FlightAware Approximate
Thu 12:08:00 PM 5.4519 -2.0252 84° East  Level FlightAware Approximate
Thu 12:09:00 PM 5.4579 -1.9639 84° East  Level FlightAware Approximate
Thu 12:10:00 PM 5.4640 -1.9025 84° East  Level FlightAware Approximate
Thu 12:11:00 PM 5.4700 -1.8412 84° East  Level FlightAware Approximate
Thu 12:12:00 PM 5.4760 -1.7799 84° East  Level FlightAware Approximate
Thu 12:13:00 PM 5.4820 -1.7185 84° East  Level FlightAware Approximate
Thu 12:14:00 PM 5.4881 -1.6572 84° East  Level FlightAware Approximate
Thu 12:15:00 PM 5.4941 -1.5958 84° East  Level FlightAware Approximate
Thu 12:16:00 PM 5.5001 -1.5345 84° East  Level FlightAware Approximate
Thu 12:17:00 PM 5.5061 -1.4731 84° East  Level FlightAware Approximate
Thu 12:18:00 PM 5.5121 -1.4117 84° East  Level FlightAware Approximate
Thu 12:19:00 PM 5.5180 -1.3504 84° East  Level FlightAware Approximate
Thu 12:20:00 PM 5.5240 -1.2890 84° East  Level FlightAware Approximate
Thu 12:21:00 PM 5.5300 -1.2277 84° East  Level FlightAware Approximate
Thu 12:22:00 PM 5.5344 -1.1662 85° East  Level Estimated
Thu 12:23:00 PM 5.5388 -1.1047 85° East  Level Estimated
Thu 12:24:00 PM 5.5432 -1.0432 85° East  Level Estimated
Thu 12:25:00 PM 5.5476 -0.9817 85° East  Level Estimated
Thu 12:26:00 PM 5.5520 -0.9202 85° East  Level Estimated
Thu 12:27:00 PM 5.5564 -0.8587 85° East  Level Estimated
Thu 12:28:00 PM 5.5607 -0.7972 85° East  Level Estimated
Thu 12:29:00 PM 5.5651 -0.7357 85° East  Level Estimated
Thu 12:30:00 PM 5.5695 -0.6742 85° East  Level Estimated
Thu 12:31:00 PM 5.5738 -0.6127 85° East  Level Estimated
Thu 12:32:00 PM 5.5782 -0.5512 85° East  Level Estimated
Thu 12:33:00 PM 5.5825 -0.4897 85° East  Level Estimated
Thu 12:34:00 PM 5.5868 -0.4282 85° East  Level Estimated
Thu 12:35:00 PM 5.5907 -0.3728 85° East  Level Estimated

Login

Don't have an account? Register now (free) for customized features, flight alerts, and more!